Airfield :







YOU CAN JOIN US ON...

 
LOGIN :

Register | Disclaimer

   EN    FR    IT 

 









Legend :    VFR   Marginal VFR   IFR   Intensive IFR   Very Intensive IFR
Visi :
Ceiling :
>= 8 km
>= 3000ft
5 to 8 km
1000 to 3000 ft
1500m to 5 km
500 to 1000 ft
800 to 1500m
200 to 500 ft
< 800m
< 200 ft
Symbols :   Thunderstorms  Fog  Heavy snow  Heavy precipitations  Wind > 20 kt






- Airport Elevation : 241 ft
- IATA code : CEF


KCEF - Westover ARB/Metropolitan

CURRENT METAR :
  • 012156Z 27008KT 10SM FEW050 FEW110 21/06 A2986 RMK AO2A SLP117 WND DATA ESTMD T02130060

EXPIRED METARs :
  • 012056Z 20006KT 10SM FEW050 FEW110 22/07 A2985 RMK AO2A SLP114 T02230069 52001
  • 011956Z 22006KT 10SM FEW050 FEW110 23/05 A2985 RMK AO2A SLP114 T02320051

TAF TAF KCEF
Valid from the 01 at 21:00 until the 03 at 03:00 UTC


012100Z 0121/0303 23009KT 9999 FEW050 FEW110 QNH2985INS
BECMG 0122/0123 VRB06KT 9999 SKC QNH2989INS
BECMG 0206/0207 VRB06KT 9999 SCT040 BKN090 QNH2994INS
BECMG 0211/0212 34009KT 9999 BKN040 OVC080 QNH2996INS
TEMPO 0212/0218 8000 -SHRA OVC030
BECMG 0219/0220 01009KT 9999 FEW040 SCT080 QNH2996INS
BECMG 0221/0222 VRB06KT 9999 SKC QNH2997INS TX22/0121Z TN10/0210Z LAST NO AMDS AFT 0203 NEXT 0213
KZBW FIR / North America



MET'MAP, your aeronautical weather chart ! - Copyright ORBIFLY December 2007 - Disclaimer

ORBIFLY MET'MAP TEAM :

Programming & Development : Alexandra Zaïnal
Concept & original design : Baudouin d'Aumeries
Assistance for programming : Marc-Olivier Méhu
Technical & hardware support : Manuel Goepfert

Contact : metmap@orbifly.com




SOURCES & CREDITS :

   NOAA